Time;durP1;ratioP1;P1;durP2;ratioP2;P2;SDS_P1;SDS_P2;PMS_P1;PMS_P2;Temp;Humidity;BMP_temperature;BMP_pressure;BME280_temperature;BME280_humidity;BME280_pressure;Samples;Min_cycle;Max_cycle;Signal;HPM_P1;HPM_P2
2022/02/21 00:02:05;;;;;;;;;6.25;2.00;;;;;8.22;100.00;100068.81;4936923;28;45384;-65
2022/02/21 00:04:31;;;;;;;;;14.50;6.25;;;;;8.15;100.00;100063.81;4936897;28;45520;-71
2022/02/21 00:06:56;;;;;;;;;6.75;5.00;;;;;8.13;100.00;100089.22;4937102;28;45375;-69
2022/02/21 00:09:22;;;;;;;;;13.75;8.00;;;;;8.09;100.00;100076.28;4937279;28;45303;-71
2022/02/21 00:11:47;;;;;;;;;8.00;6.00;;;;;8.07;100.00;100078.09;4936713;28;46378;-69
2022/02/21 00:14:13;;;;;;;;;8.50;7.00;;;;;8.06;100.00;100084.25;4935707;28;45486;-67
2022/02/21 00:16:38;;;;;;;;;12.75;6.75;;;;;8.02;100.00;100097.47;4937122;28;45314;-72
2022/02/21 00:19:03;;;;;;;;;16.75;4.75;;;;;7.92;100.00;100088.25;4937074;28;45680;-71
2022/02/21 00:21:29;;;;;;;;;8.75;5.00;;;;;7.87;100.00;100113.75;4936740;28;46255;-71
2022/02/21 00:23:55;;;;;;;;;10.50;3.75;;;;;7.87;100.00;100121.59;4936876;28;45212;-73
2022/02/21 00:26:21;;;;;;;;;12.00;6.00;;;;;7.83;100.00;100126.09;4937008;28;45264;-73
2022/02/21 00:28:47;;;;;;;;;6.50;4.00;;;;;7.86;100.00;100120.75;4937023;28;45171;-70
2022/02/21 00:31:13;;;;;;;;;8.50;5.25;;;;;7.87;100.00;100129.47;4936852;28;45358;-71
2022/02/21 00:33:39;;;;;;;;;11.75;6.75;;;;;7.89;100.00;100145.97;4936555;28;45370;-71
2022/02/21 00:36:05;;;;;;;;;8.75;4.75;;;;;7.91;100.00;100149.41;4939178;28;45372;-71
2022/02/21 00:38:30;;;;;;;;;11.75;5.00;;;;;7.93;100.00;100154.56;4940074;28;45535;-70
2022/02/21 00:40:56;;;;;;;;;7.50;4.75;;;;;7.89;100.00;100165.16;4939658;28;45345;-72
2022/02/21 00:43:22;;;;;;;;;12.75;4.00;;;;;7.80;100.00;100146.31;4939753;28;45383;-69
2022/02/21 00:45:47;;;;;;;;;7.50;3.75;;;;;7.68;100.00;100169.41;4939856;28;45459;-70
2022/02/21 00:48:13;;;;;;;;;7.25;4.00;;;;;7.56;100.00;100162.81;4940690;28;45255;-67
2022/02/21 00:50:38;;;;;;;;;8.00;3.00;;;;;7.56;100.00;100167.22;4939798;28;45351;-70
2022/02/21 00:53:04;;;;;;;;;6.75;2.25;;;;;7.52;100.00;100171.69;4939778;28;45228;-72
2022/02/21 00:55:30;;;;;;;;;3.00;2.00;;;;;7.54;100.00;100169.03;4939963;28;45328;-68
2022/02/21 00:57:56;;;;;;;;;7.00;4.25;;;;;7.47;100.00;100188.47;4938830;28;45508;-66
2022/02/21 01:00:22;;;;;;;;;5.50;3.25;;;;;7.34;100.00;100206.31;4939382;28;46731;-63
2022/02/21 01:02:47;;;;;;;;;7.00;3.00;;;;;7.03;100.00;100233.47;4939666;28;46006;-70
2022/02/21 01:05:13;;;;;;;;;4.00;1.00;;;;;6.72;100.00;100271.84;4938553;28;45355;-65
2022/02/21 01:07:38;;;;;;;;;3.00;1.00;;;;;6.32;100.00;100279.03;4938358;28;45517;-67
2022/02/21 01:10:05;;;;;;;;;3.25;1.00;;;;;5.87;100.00;100293.22;4939477;28;46031;-71
2022/02/21 01:12:31;;;;;;;;;2.00;1.00;;;;;5.61;100.00;100276.47;4939512;28;45480;-69
2022/02/21 01:14:57;;;;;;;;;4.50;1.00;;;;;5.46;100.00;100289.88;4938205;28;45353;-69
2022/02/21 01:17:22;;;;;;;;;1.00;1.00;;;;;5.32;100.00;100267.59;4938231;28;45630;-68
2022/02/21 01:19:51;;;;;;;;;3.75;1.00;;;;;5.22;100.00;100253.91;4939231;28;45334;-68
2022/02/21 01:22:16;;;;;;;;;5.25;2.00;;;;;5.12;100.00;100248.03;4938417;28;45363;-65
2022/02/21 01:24:42;;;;;;;;;3.00;1.00;;;;;5.08;100.00;100251.59;4939553;28;45380;-69
2022/02/21 01:27:07;;;;;;;;;2.00;2.00;;;;;5.07;100.00;100256.88;4939770;28;45254;-70
2022/02/21 01:29:33;;;;;;;;;2.00;0.50;;;;;5.02;100.00;100249.13;4939203;28;46457;-71
2022/02/21 01:31:59;;;;;;;;;3.50;2.00;;;;;4.97;100.00;100248.38;4938116;28;45627;-68
2022/02/21 01:34:24;;;;;;;;;1.00;1.00;;;;;4.92;100.00;100258.94;4939465;28;45411;-71
2022/02/21 01:36:52;;;;;;;;;3.50;2.00;;;;;5.01;100.00;100267.44;4939543;28;45640;-65
2022/02/21 01:39:17;;;;;;;;;4.00;1.75;;;;;5.06;100.00;100273.41;4939316;28;47298;-68
2022/02/21 01:41:43;;;;;;;;;5.75;2.00;;;;;5.15;100.00;100280.13;4939367;28;45284;-68
2022/02/21 01:44:10;;;;;;;;;7.25;2.50;;;;;5.30;100.00;100313.72;4939291;28;45409;-66
2022/02/21 01:46:37;;;;;;;;;1.00;1.00;;;;;5.33;100.00;100385.81;4938714;28;45524;-70
2022/02/21 01:49:05;;;;;;;;;2.00;1.00;;;;;5.16;100.00;100339.22;4938853;28;46459;-67
2022/02/21 01:51:32;;;;;;;;;4.00;0.00;;;;;4.93;100.00;100284.09;4938920;28;45360;-68
2022/02/21 01:53:58;;;;;;;;;1.75;1.25;;;;;4.78;100.00;100289.63;4939057;28;45427;-70
2022/02/21 01:56:28;;;;;;;;;1.75;0.00;;;;;4.70;100.00;100297.59;4939280;28;45533;-68
2022/02/21 01:58:53;;;;;;;;;1.00;1.00;;;;;4.68;100.00;100291.56;4939167;28;46912;-67
2022/02/21 02:01:19;;;;;;;;;0.50;0.00;;;;;4.62;100.00;100295.13;4938681;28;45500;-65
2022/02/21 02:03:44;;;;;;;;;2.00;1.00;;;;;4.60;100.00;100285.66;4939013;28;45371;-69
2022/02/21 02:06:10;;;;;;;;;2.00;0.75;;;;;4.58;100.00;100277.84;4937638;28;45467;-71
2022/02/21 02:08:36;;;;;;;;;2.00;0.25;;;;;4.63;100.00;100275.16;4938547;28;45401;-69
2022/02/21 02:11:01;;;;;;;;;3.50;0.75;;;;;4.64;100.00;100271.66;4938332;28;45406;-71
2022/02/21 02:13:27;;;;;;;;;1.75;1.00;;;;;4.64;100.00;100271.66;4938843;28;45361;-67
2022/02/21 02:15:54;;;;;;;;;3.25;1.00;;;;;4.65;100.00;100265.56;4938945;28;45286;-69
2022/02/21 02:18:21;;;;;;;;;3.50;0.75;;;;;4.75;100.00;100272.31;4938589;28;45286;-62
2022/02/21 02:20:46;;;;;;;;;5.00;2.00;;;;;4.80;100.00;100261.81;4937381;28;45280;-64
2022/02/21 02:23:12;;;;;;;;;5.75;2.00;;;;;4.82;100.00;100260.84;4938366;28;45240;-70
2022/02/21 02:25:39;;;;;;;;;3.00;2.00;;;;;4.82;100.00;100260.84;4938525;28;45212;-64
2022/02/21 02:28:04;;;;;;;;;6.00;1.50;;;;;4.87;100.00;100273.81;4938293;28;46246;-68
2022/02/21 02:30:30;;;;;;;;;9.50;3.25;;;;;4.89;100.00;100272.03;4938219;28;45808;-62
2022/02/21 02:32:55;;;;;;;;;3.75;2.75;;;;;4.95;100.00;100268.41;4938355;28;45486;-68
2022/02/21 02:35:22;;;;;;;;;4.75;3.00;;;;;4.97;100.00;100269.22;4937371;28;45430;-65
2022/02/21 02:37:47;;;;;;;;;6.25;3.75;;;;;5.01;100.00;100259.59;4937713;28;46198;-63
2022/02/21 02:40:14;;;;;;;;;3.50;1.50;;;;;5.00;100.00;100257.91;4938599;28;45440;-69
2022/02/21 02:42:40;;;;;;;;;5.50;3.00;;;;;5.01;100.00;100260.44;4938278;28;45661;-70
2022/02/21 02:45:06;;;;;;;;;9.75;3.50;;;;;5.05;100.00;100267.31;4936925;28;45509;-70
2022/02/21 02:47:31;;;;;;;;;8.00;3.00;;;;;5.10;100.00;100272.44;4937826;28;45562;-69
2022/02/21 02:49:56;;;;;;;;;4.25;2.00;;;;;5.11;100.00;100274.16;4936774;28;45314;-70
2022/02/21 02:52:22;;;;;;;;;10.25;4.25;;;;;5.15;100.00;100269.72;4938204;28;45183;-64
2022/02/21 02:54:47;;;;;;;;;7.50;4.00;;;;;5.18;100.00;100277.47;4937270;28;45217;-69
2022/02/21 02:57:12;;;;;;;;;9.25;4.00;;;;;5.19;100.00;100273.97;4937800;28;46458;-70
2022/02/21 02:59:38;;;;;;;;;12.00;5.25;;;;;5.17;100.00;100267.94;4937580;28;45385;-68
2022/02/21 03:02:03;;;;;;;;;9.25;4.00;;;;;5.22;100.00;100272.16;4937888;28;45764;-69
2022/02/21 03:04:29;;;;;;;;;7.00;3.00;;;;;5.24;100.00;100264.28;4936856;28;45396;-69
2022/02/21 03:06:58;;;;;;;;;8.50;3.50;;;;;5.25;100.00;100259.03;4936371;28;48284;-69
2022/02/21 03:09:24;;;;;;;;;6.50;4.50;;;;;5.38;100.00;100267.44;4937718;28;45428;-68
2022/02/21 03:11:49;;;;;;;;;7.00;3.00;;;;;5.37;100.00;100264.88;4937890;28;45286;-69
2022/02/21 03:14:14;;;;;;;;;8.00;1.75;;;;;5.36;100.00;100250.97;4937862;28;45253;-69
2022/02/21 03:16:40;;;;;;;;;11.25;6.00;;;;;5.43;100.00;100251.66;4937444;28;45550;-68
2022/02/21 03:19:05;;;;;;;;;11.50;5.00;;;;;5.41;100.00;100251.72;4937553;28;45391;-68
2022/02/21 03:21:31;;;;;;;;;7.75;1.50;;;;;5.44;100.00;100252.53;4938139;28;45290;-68
2022/02/21 03:23:56;;;;;;;;;12.00;4.50;;;;;5.46;100.00;100251.59;4937825;28;45492;-70
2022/02/21 03:26:21;;;;;;;;;8.00;5.50;;;;;5.46;100.00;100262.03;4937840;28;45443;-68
2022/02/21 03:28:47;;;;;;;;;10.50;5.25;;;;;5.46;100.00;100261.19;4937680;28;45354;-66
2022/02/21 03:31:12;;;;;;;;;10.50;3.25;;;;;5.49;100.00;100259.34;4936288;28;45223;-70
2022/02/21 03:33:38;;;;;;;;;5.75;5.00;;;;;5.48;100.00;100256.78;4938256;28;45664;-69
2022/02/21 03:36:03;;;;;;;;;10.75;4.50;;;;;5.49;100.00;100264.56;4937116;28;45425;-68
2022/02/21 03:38:28;;;;;;;;;6.75;3.00;;;;;5.53;100.00;100262.75;4937344;28;45366;-67
2022/02/21 03:40:54;;;;;;;;;9.25;4.25;;;;;5.55;100.00;100255.75;4937652;28;45318;-60
2022/02/21 03:43:19;;;;;;;;;7.75;4.00;;;;;5.55;100.00;100266.19;4938467;28;45392;-69
2022/02/21 03:45:45;;;;;;;;;12.25;3.00;;;;;5.52;100.00;100266.25;4938007;28;46660;-69
2022/02/21 03:48:11;;;;;;;;;5.75;3.25;;;;;5.51;100.00;100270.59;4937670;28;45330;-70
2022/02/21 03:50:36;;;;;;;;;14.00;3.00;;;;;5.56;100.00;100262.69;4937911;28;45353;-68
2022/02/21 03:53:01;;;;;;;;;5.00;3.00;;;;;5.54;100.00;100257.47;4936171;28;45428;-70
2022/02/21 03:55:27;;;;;;;;;4.50;1.00;;;;;5.55;100.00;100260.97;4935958;28;46383;-69
2022/02/21 03:57:52;;;;;;;;;5.50;3.75;;;;;5.57;100.00;100272.22;4937367;28;45262;-70
2022/02/21 04:00:18;;;;;;;;;9.75;3.00;;;;;5.58;100.00;100271.31;4937207;28;45314;-70
2022/02/21 04:02:44;;;;;;;;;9.25;4.00;;;;;5.63;100.00;100289.47;4937191;28;45617;-70
2022/02/21 04:05:10;;;;;;;;;10.25;2.75;;;;;5.66;100.00;100313.75;4936942;28;46300;-67
2022/02/21 04:07:37;;;;;;;;;7.50;3.00;;;;;5.66;100.00;100269.38;4935428;28;45406;-69
2022/02/21 04:10:03;;;;;;;;;9.50;5.25;;;;;5.82;100.00;100295.94;4936280;28;45251;-68
2022/02/21 04:12:28;;;;;;;;;8.50;4.50;;;;;5.85;100.00;100295.03;4936785;28;45516;-66
2022/02/21 04:14:54;;;;;;;;;7.50;3.25;;;;;5.84;100.00;100294.19;4936899;28;46179;-69
2022/02/21 04:17:19;;;;;;;;;5.25;3.00;;;;;5.87;100.00;100276.72;4937145;28;45409;-69
2022/02/21 04:19:46;;;;;;;;;5.00;3.00;;;;;5.88;100.00;100278.44;4935848;28;45264;-70
2022/02/21 04:22:12;;;;;;;;;4.50;3.25;;;;;5.74;100.00;100257.91;4937157;28;45468;-70
2022/02/21 04:24:38;;;;;;;;;8.75;3.75;;;;;5.88;100.00;100287.09;4936651;28;47053;-71
2022/02/21 04:27:05;;;;;;;;;7.50;3.00;;;;;5.84;100.00;100285.47;4936821;28;45264;-70
2022/02/21 04:29:30;;;;;;;;;6.25;4.00;;;;;5.87;100.00;100293.22;4937092;28;45236;-67
2022/02/21 04:31:55;;;;;;;;;5.25;2.50;;;;;5.81;100.00;100285.56;4936065;28;45254;-70
2022/02/21 04:34:21;;;;;;;;;9.50;2.00;;;;;5.76;100.00;100276.97;4936789;28;45313;-69
2022/02/21 04:36:46;;;;;;;;;7.75;2.00;;;;;5.73;100.00;100284.88;4935558;28;45777;-68
2022/02/21 04:39:11;;;;;;;;;6.00;3.50;;;;;5.65;100.00;100283.31;4936835;28;45641;-69
2022/02/21 04:41:37;;;;;;;;;6.00;2.50;;;;;5.63;100.00;100279.03;4937262;28;45183;-67
2022/02/21 04:44:03;;;;;;;;;6.50;1.25;;;;;5.59;100.00;100272.16;4936732;28;46122;-69
2022/02/21 04:46:28;;;;;;;;;3.50;1.00;;;;;5.62;100.00;100278.19;4936560;28;45511;-66
2022/02/21 04:48:54;;;;;;;;;9.00;3.50;;;;;5.59;100.00;100273.03;4937001;28;45366;-71
2022/02/21 04:51:19;;;;;;;;;3.50;2.25;;;;;5.66;100.00;100284.16;4936671;28;45501;-69
2022/02/21 04:53:45;;;;;;;;;7.00;2.00;;;;;5.68;100.00;100280.63;4936280;28;46146;-67
2022/02/21 04:56:10;;;;;;;;;7.25;3.00;;;;;5.72;100.00;100273.56;4936440;28;45394;-70
2022/02/21 04:58:36;;;;;;;;;6.00;2.00;;;;;5.76;100.00;100262.16;4936449;28;45445;-67
2022/02/21 05:01:01;;;;;;;;;2.75;2.00;;;;;5.79;100.00;100266.47;4935226;28;45337;-70
2022/02/21 05:03:26;;;;;;;;;4.50;3.00;;;;;5.77;100.00;100266.47;4936272;28;45392;-71
2022/02/21 05:05:52;;;;;;;;;6.25;2.00;;;;;5.76;100.00;100261.31;4936081;28;45307;-69
2022/02/21 05:08:17;;;;;;;;;0.25;0.00;;;;;5.78;100.00;100268.19;4936055;28;45666;-70
2022/02/21 05:10:43;;;;;;;;;5.25;1.50;;;;;5.83;100.00;100275.94;4936364;28;45548;-69
2022/02/21 05:13:08;;;;;;;;;10.25;2.00;;;;;5.88;100.00;100292.34;4936167;28;45653;-70
2022/02/21 05:15:34;;;;;;;;;2.75;1.75;;;;;5.93;100.00;100284.41;4936223;28;45211;-68
2022/02/21 05:17:59;;;;;;;;;4.50;2.25;;;;;5.96;100.00;100277.31;4936084;28;45243;-69
2022/02/21 05:20:24;;;;;;;;;2.25;2.00;;;;;5.98;100.00;100280.75;4936792;28;45528;-69
2022/02/21 05:22:50;;;;;;;;;4.25;2.00;;;;;5.99;100.00;100277.25;4936649;28;47024;-67
2022/02/21 05:25:15;;;;;;;;;3.50;3.00;;;;;6.02;100.00;100268.53;4939342;28;45406;-68
2022/02/21 05:27:43;;;;;;;;;6.50;2.00;;;;;6.01;100.00;100269.41;4939437;28;45224;-71
2022/02/21 05:30:09;;;;;;;;;7.00;2.00;;;;;6.02;100.00;100268.53;4939720;28;45574;-70
2022/02/21 05:32:34;;;;;;;;;5.00;2.50;;;;;6.02;100.00;100268.53;4937797;28;48083;-71
2022/02/21 05:35:00;;;;;;;;;6.25;2.00;;;;;6.04;100.00;100281.53;4937843;28;45430;-66
2022/02/21 05:37:26;;;;;;;;;11.25;2.00;;;;;6.05;100.00;100278.00;4939473;28;45431;-68
2022/02/21 05:39:51;;;;;;;;;11.50;3.00;;;;;6.02;100.00;100273.75;4938981;28;45331;-62
2022/02/21 05:42:17;;;;;;;;;4.00;2.00;;;;;5.98;100.00;100285.97;4939027;28;46409;-70
2022/02/21 05:44:42;;;;;;;;;4.75;2.00;;;;;5.95;100.00;100280.00;4939428;28;45444;-72
2022/02/21 05:47:08;;;;;;;;;3.75;2.00;;;;;5.92;100.00;100267.84;4939298;28;45263;-68
2022/02/21 05:49:33;;;;;;;;;6.00;1.50;;;;;5.90;100.00;100276.66;4939214;28;45580;-69
2022/02/21 05:51:59;;;;;;;;;4.00;1.50;;;;;5.83;100.00;100266.34;4937526;28;46585;-68
2022/02/21 05:54:25;;;;;;;;;3.25;1.00;;;;;5.80;100.00;100268.19;4937720;28;45424;-70
2022/02/21 05:56:50;;;;;;;;;3.50;1.00;;;;;5.72;100.00;100270.97;4939302;28;45453;-70
2022/02/21 05:59:17;;;;;;;;;3.50;1.50;;;;;5.64;100.00;100268.56;4939269;28;45290;-70
2022/02/21 06:01:42;;;;;;;;;4.00;1.50;;;;;5.60;100.00;100287.81;4938948;28;45468;-69
2022/02/21 06:04:08;;;;;;;;;3.00;1.00;;;;;5.52;100.00;100282.75;4938617;28;45296;-70
2022/02/21 06:06:34;;;;;;;;;1.00;1.00;;;;;5.50;100.00;100294.97;4937450;28;45335;-67
2022/02/21 06:09:01;;;;;;;;;2.50;1.00;;;;;5.47;100.00;100291.59;4937893;28;45330;-69
2022/02/21 06:11:26;;;;;;;;;0.75;0.75;;;;;5.44;100.00;100307.31;4938601;28;47084;-67
2022/02/21 06:13:52;;;;;;;;;2.00;1.00;;;;;5.46;100.00;100309.00;4938461;28;45429;-67
2022/02/21 06:16:17;;;;;;;;;5.00;0.75;;;;;5.51;100.00;100316.72;4938697;28;45438;-70
2022/02/21 06:18:42;;;;;;;;;3.50;0.00;;;;;5.54;100.00;100329.69;4938464;28;45410;-68
2022/02/21 06:21:08;;;;;;;;;7.00;1.00;;;;;5.54;100.00;100314.88;4936736;28;46338;-67
2022/02/21 06:23:33;;;;;;;;;2.00;0.00;;;;;5.56;100.00;100320.91;4938278;28;45446;-65
2022/02/21 06:25:59;;;;;;;;;6.50;0.00;;;;;5.54;100.00;100325.31;4938543;28;45361;-66
2022/02/21 06:28:24;;;;;;;;;2.00;1.00;;;;;5.59;100.00;100316.53;4938331;28;45554;-69
2022/02/21 06:30:53;;;;;;;;;2.25;0.75;;;;;5.62;100.00;100313.84;4937826;28;46557;-68
2022/02/21 06:33:18;;;;;;;;;2.00;0.50;;;;;5.70;100.00;100314.50;4937172;28;45329;-69
2022/02/21 06:35:45;;;;;;;;;2.00;0.00;;;;;5.75;100.00;100319.63;4937698;28;45657;-64
2022/02/21 06:38:11;;;;;;;;;4.00;1.00;;;;;5.80;100.00;100330.81;4937820;28;45404;-69
2022/02/21 06:40:36;;;;;;;;;7.00;0.50;;;;;5.84;100.00;100329.84;4937335;28;46590;-69
2022/02/21 06:43:02;;;;;;;;;0.25;0.00;;;;;5.87;100.00;100329.78;4937908;28;45436;-64
2022/02/21 06:45:28;;;;;;;;;0.00;0.00;;;;;5.91;100.00;100333.19;4936240;28;45400;-67
2022/02/21 06:47:55;;;;;;;;;2.00;1.00;;;;;5.90;100.00;100332.31;4938185;28;45353;-65
2022/02/21 06:50:21;;;;;;;;;3.00;1.00;;;;;5.87;100.00;100337.59;4937680;28;46445;-69
2022/02/21 06:52:47;;;;;;;;;2.75;1.00;;;;;5.77;100.00;100323.06;4936411;28;45228;-65
2022/02/21 06:55:13;;;;;;;;;1.00;1.00;;;;;5.70;100.00;100318.00;4937627;28;45307;-69
2022/02/21 06:57:44;;;;;;;;;4.25;0.75;;;;;5.69;100.00;100337.16;4937841;28;45529;-69
2022/02/21 07:00:10;;;;;;;;;3.50;1.75;;;;;5.66;100.00;100344.19;4937248;28;45397;-70
2022/02/21 07:02:36;;;;;;;;;2.50;1.00;;;;;5.63;100.00;100345.13;4937277;28;45353;-69
2022/02/21 07:05:01;;;;;;;;;2.00;1.00;;;;;5.59;100.00;100353.06;4937917;28;45390;-70
2022/02/21 07:07:27;;;;;;;;;3.75;1.50;;;;;5.59;100.00;100372.19;4937690;28;45666;-72
2022/02/21 07:09:52;;;;;;;;;4.75;1.00;;;;;5.61;99.21;100369.53;4937212;28;45506;-71
2022/02/21 07:12:17;;;;;;;;;5.75;2.00;;;;;5.69;100.00;100370.22;4936461;28;45749;-70
2022/02/21 07:14:43;;;;;;;;;3.50;1.00;;;;;5.71;99.64;100371.03;4937389;28;45247;-69
2022/02/21 07:17:09;;;;;;;;;5.00;1.00;;;;;5.68;99.92;100356.31;4936226;28;45403;-69
2022/02/21 07:19:34;;;;;;;;;4.50;0.50;;;;;5.65;99.90;100361.63;4937340;28;45811;-59
2022/02/21 07:22:00;;;;;;;;;7.50;1.50;;;;;5.63;99.67;100359.91;4937893;28;45432;-69
2022/02/21 07:24:25;;;;;;;;;2.50;2.00;;;;;5.63;100.00;100375.56;4937633;28;45371;-69
2022/02/21 07:26:51;;;;;;;;;5.00;1.00;;;;;5.61;100.00;100375.63;4938204;28;45406;-70
2022/02/21 07:29:16;;;;;;;;;2.25;2.00;;;;;5.60;100.00;100376.53;4937992;28;46281;-68
2022/02/21 07:31:42;;;;;;;;;1.00;1.00;;;;;5.61;98.83;100370.41;4936834;28;45342;-69
2022/02/21 07:34:07;;;;;;;;;7.50;2.50;;;;;5.62;96.97;100379.94;4939675;28;45434;-65
2022/02/21 07:36:34;;;;;;;;;4.00;1.00;;;;;5.69;99.83;100367.59;4939789;28;45544;-66
2022/02/21 07:39:01;;;;;;;;;3.75;1.00;;;;;5.78;100.00;100376.97;4938013;28;46463;-72
2022/02/21 07:41:27;;;;;;;;;5.25;4.00;;;;;5.79;99.64;100378.69;4936181;28;45295;-70
2022/02/21 07:43:52;;;;;;;;;6.50;2.50;;;;;5.80;97.78;100372.59;4936909;28;45352;-69
2022/02/21 07:46:17;;;;;;;;;4.00;3.00;;;;;5.79;98.17;100360.44;4936650;28;45400;-70
2022/02/21 07:48:43;;;;;;;;;4.50;2.75;;;;;5.80;98.71;100360.38;4936866;28;46457;-68
2022/02/21 07:51:08;;;;;;;;;6.75;5.25;;;;;5.80;100.00;100362.97;4936784;28;45442;-69
2022/02/21 07:53:34;;;;;;;;;4.75;1.50;;;;;5.79;97.90;100363.88;4937227;28;45428;-64
2022/02/21 07:55:59;;;;;;;;;4.25;1.75;;;;;5.82;98.73;100368.19;4937346;28;45430;-68
2022/02/21 07:58:25;;;;;;;;;3.75;3.00;;;;;5.85;98.35;100373.34;4936929;28;45417;-69
2022/02/21 08:00:50;;;;;;;;;4.00;2.00;;;;;5.90;99.78;100376.69;4936377;28;45274;-67
2022/02/21 08:03:15;;;;;;;;;8.75;6.00;;;;;5.97;98.11;100380.03;4935887;28;45497;-72
2022/02/21 08:05:41;;;;;;;;;4.25;2.25;;;;;6.11;98.11;100382.31;4937438;28;45395;-74
2022/02/21 08:08:06;;;;;;;;;5.00;2.00;;;;;6.21;98.40;100386.41;4936877;28;45440;-73
2022/02/21 08:10:32;;;;;;;;;6.25;3.00;;;;;6.37;98.77;100392.09;4937097;28;45457;-76
2022/02/21 08:12:57;;;;;;;;;4.25;2.50;;;;;6.42;98.68;100373.72;4935246;28;45341;-66
2022/02/21 08:15:23;;;;;;;;;6.00;3.75;;;;;6.49;98.59;100371.78;4937074;28;45252;-69
2022/02/21 08:17:48;;;;;;;;;4.50;3.00;;;;;6.49;97.72;100377.88;4937126;28;45371;-72
2022/02/21 08:20:17;;;;;;;;;7.00;4.00;;;;;6.46;97.99;100375.34;4933943;28;45721;-73
2022/02/21 08:22:43;;;;;;;;;8.00;3.00;;;;;6.45;98.61;100376.25;4936884;28;45471;-76
2022/02/21 08:25:10;;;;;;;;;5.50;4.00;;;;;6.42;96.61;100378.94;4935374;28;46454;-66
2022/02/21 08:27:38;;;;;;;;;10.00;6.25;;;;;6.51;98.56;100383.03;4936336;28;47538;-69
2022/02/21 08:30:05;;;;;;;;;4.50;4.00;;;;;6.62;99.19;100381.00;4930831;28;45336;-71
2022/02/21 08:32:30;;;;;;;;;4.75;3.75;;;;;6.72;97.93;100398.16;4936537;28;45235;-66
2022/02/21 08:34:55;;;;;;;;;6.50;3.50;;;;;6.79;97.66;100384.91;4934832;28;45245;-68
2022/02/21 08:37:21;;;;;;;;;6.00;4.00;;;;;6.78;97.93;100381.44;4937116;28;45417;-76
2022/02/21 08:39:46;;;;;;;;;6.25;2.50;;;;;6.81;96.67;100391.81;4932617;28;45449;-67
2022/02/21 08:42:11;;;;;;;;;11.50;2.75;;;;;6.82;97.06;100393.53;4918766;28;45245;-66
2022/02/21 08:44:37;;;;;;;;;8.25;4.00;;;;;6.84;97.53;100381.28;4915575;28;45611;-72
2022/02/21 08:47:03;;;;;;;;;10.50;5.25;;;;;6.94;95.96;100397.59;4916463;28;46619;-71
2022/02/21 08:49:28;;;;;;;;;9.25;3.50;;;;;7.03;94.87;100395.59;4916710;28;45859;-66
2022/02/21 08:51:53;;;;;;;;;6.00;3.00;;;;;7.06;95.50;100385.91;4917291;28;45341;-68
2022/02/21 08:54:19;;;;;;;;;5.75;4.00;;;;;7.21;95.03;100389.84;4917428;28;45420;-64
2022/02/21 08:56:48;;;;;;;;;7.50;3.00;;;;;7.16;93.36;100370.81;4917876;28;48046;-69
2022/02/21 08:59:16;;;;;;;;;5.75;4.50;;;;;7.34;93.24;100397.31;4920557;28;45213;-66
2022/02/21 09:01:44;;;;;;;;;5.25;3.00;;;;;7.34;93.73;100403.41;4920570;28;45589;-60
2022/02/21 09:04:10;;;;;;;;;8.50;3.00;;;;;7.24;90.77;100407.19;4920825;28;45651;-75
2022/02/21 09:06:36;;;;;;;;;8.00;3.75;;;;;7.22;94.97;100395.91;4918958;28;47264;-74
2022/02/21 09:09:01;;;;;;;;;6.00;6.00;;;;;7.24;96.15;100415.91;4920446;28;45432;-71
2022/02/21 09:11:27;;;;;;;;;5.25;4.50;;;;;7.28;94.52;100394.00;4920354;28;45408;-74
2022/02/21 09:13:52;;;;;;;;;7.75;4.00;;;;;7.33;94.10;100403.47;4919972;28;45505;-73
2022/02/21 09:16:17;;;;;;;;;3.75;2.25;;;;;7.33;94.99;100396.44;4920164;28;45673;-74
2022/02/21 09:18:43;;;;;;;;;4.25;3.75;;;;;7.42;93.79;100392.72;4921317;28;45246;-73
2022/02/21 09:21:08;;;;;;;;;7.25;2.75;;;;;7.40;94.57;100394.53;4904813;28;45451;-70
2022/02/21 09:23:34;;;;;;;;;8.25;4.50;;;;;7.51;93.23;100396.84;4922580;28;45256;-74
2022/02/21 09:25:59;;;;;;;;;5.00;2.50;;;;;7.59;92.89;100390.44;4920580;28;45545;-74
2022/02/21 09:28:25;;;;;;;;;7.25;3.00;;;;;7.70;92.95;100379.66;4918845;28;45707;-72
2022/02/21 09:30:55;;;;;;;;;5.25;3.00;;;;;7.61;91.69;100359.00;4920111;28;45293;-74
2022/02/21 09:33:24;;;;;;;;;7.50;1.00;;;;;7.71;91.66;100362.16;4919942;28;45399;-75
2022/02/21 09:35:49;;;;;;;;;6.50;3.50;;;;;7.72;92.99;100362.13;4919920;28;45531;-73
2022/02/21 09:38:15;;;;;;;;;5.75;3.00;;;;;7.78;94.16;100375.94;4919751;28;45290;-68
2022/02/21 09:40:42;;;;;;;;;6.50;3.25;;;;;7.80;92.25;100387.22;4919900;28;45233;-65
2022/02/21 09:43:08;;;;;;;;;6.00;3.00;;;;;7.84;91.79;100368.72;4920160;28;45215;-65
2022/02/21 09:45:35;;;;;;;;;3.25;2.75;;;;;7.91;91.38;100361.53;4919548;28;46261;-66
2022/02/21 09:48:02;;;;;;;;;3.50;3.50;;;;;7.96;92.14;100377.94;4917976;28;45514;-73
2022/02/21 09:50:28;;;;;;;;;10.00;3.25;;;;;8.02;92.31;100382.97;4919496;28;45317;-70
2022/02/21 09:53:00;;;;;;;;;5.75;3.25;;;;;8.14;90.62;100381.75;4918027;28;45661;-73
2022/02/21 09:55:26;;;;;;;;;5.75;4.75;;;;;8.31;89.06;100373.28;4919554;28;45538;-72
2022/02/21 09:57:52;;;;;;;;;8.00;3.25;;;;;8.49;86.95;100389.34;4919247;28;45806;-74
2022/02/21 10:00:17;;;;;;;;;8.00;4.00;;;;;8.67;85.00;100381.75;4919313;28;45429;-74
2022/02/21 10:02:46;;;;;;;;;5.75;4.00;;;;;8.80;87.85;100380.41;4919833;28;45359;-70
2022/02/21 10:05:25;;;;;;;;;6.50;3.00;;;;;8.93;84.47;100401.78;4919516;28;45396;-73
2022/02/21 10:07:51;;;;;;;;;5.75;4.00;;;;;9.00;84.26;100382.28;4918486;28;45384;-74
2022/02/21 10:10:20;;;;;;;;;9.25;3.00;;;;;9.09;82.99;100394.22;4917817;28;45439;-74
2022/02/21 10:12:51;;;;;;;;;5.75;3.00;;;;;9.18;82.41;100393.03;4917777;28;45209;-72
2022/02/21 10:15:20;;;;;;;;;7.00;3.00;;;;;9.27;85.62;100413.69;4917450;28;45682;-73
2022/02/21 10:17:47;;;;;;;;;7.00;2.00;;;;;9.28;83.65;100401.38;4918875;28;45358;-74
2022/02/21 10:20:14;;;;;;;;;4.75;2.00;;;;;9.28;82.89;100420.63;4917949;28;45295;-70
2022/02/21 10:22:39;;;;;;;;;8.50;4.00;;;;;9.26;81.99;100400.59;4917957;28;45684;-72
2022/02/21 10:25:16;;;;;;;;;7.25;4.00;;;;;9.29;80.47;100413.59;4918812;28;45354;-69
2022/02/21 10:27:41;;;;;;;;;4.75;2.00;;;;;9.24;81.41;100410.28;4919008;28;45335;-72
2022/02/21 10:30:09;;;;;;;;;7.75;4.00;;;;;9.24;79.84;100405.03;4918611;28;45421;-73
2022/02/21 10:32:38;;;;;;;;;6.75;5.00;;;;;9.27;77.99;100405.81;4919002;28;45579;-75
2022/02/21 10:35:12;;;;;;;;;3.50;3.25;;;;;9.30;85.32;100407.44;4918395;28;45510;-74
2022/02/21 10:37:46;;;;;;;;;6.00;4.00;;;;;9.41;83.74;100417.53;4918976;28;45500;-69
2022/02/21 10:40:35;;;;;;;;;5.50;4.00;;;;;9.43;82.19;100410.47;4919348;28;45256;-75
2022/02/21 10:43:09;;;;;;;;;6.00;3.25;;;;;9.41;78.42;100428.88;4919131;28;45386;-69
2022/02/21 10:45:37;;;;;;;;;6.50;3.00;;;;;9.48;80.77;100404.09;4918282;28;45416;-75
2022/02/21 10:48:07;;;;;;;;;9.25;3.75;;;;;9.55;80.99;100409.16;4917525;28;45426;-68
2022/02/21 10:50:36;;;;;;;;;7.25;5.50;;;;;9.63;81.31;100412.34;4918770;28;45305;-76
2022/02/21 10:53:10;;;;;;;;;9.00;4.25;;;;;9.71;83.35;100418.16;4917488;28;45383;-75
2022/02/21 10:55:36;;;;;;;;;7.00;2.75;;;;;9.78;85.03;100422.22;4918619;28;45586;-71
2022/02/21 10:58:22;;;;;;;;;11.00;4.25;;;;;9.87;82.02;100420.16;4918744;28;45327;-75
2022/02/21 11:00:51;;;;;;;;;8.50;5.00;;;;;9.89;79.26;100416.53;4919061;28;45340;-67
2022/02/21 11:03:21;;;;;;;;;11.75;4.00;;;;;10.04;76.93;100422.97;4919721;28;45478;-62
2022/02/21 11:05:48;;;;;;;;;13.50;5.00;;;;;10.16;80.51;100410.22;4918713;28;46340;-75
2022/02/21 11:08:20;;;;;;;;;4.25;2.75;;;;;10.31;78.41;100399.06;4917307;28;45306;-68
2022/02/21 11:11:21;;;;;;;;;10.50;4.00;;;;;10.46;78.00;100397.63;4918900;28;45433;-64
2022/02/21 11:13:49;;;;;;;;;8.00;3.00;;;;;10.45;76.60;100421.34;4841330;29;45636;-70
2022/02/21 11:16:15;;;;;;;;;6.25;4.50;;;;;10.32;76.29;100413.94;4903619;28;46498;-70
2022/02/21 11:18:41;;;;;;;;;9.75;6.25;;;;;10.25;73.65;100430.88;4918211;28;45456;-72
2022/02/21 11:21:08;;;;;;;;;9.25;4.00;;;;;10.28;72.91;100440.44;4918199;28;45497;-73
2022/02/21 11:23:34;;;;;;;;;5.50;3.25;;;;;10.26;78.51;100394.94;4918089;28;45539;-74